Time;durP1;ratioP1;P1;durP2;ratioP2;P2;SDS_P1;SDS_P2;PMS_P1;PMS_P2;Temp;Humidity;BMP_temperature;BMP_pressure;BME280_temperature;BME280_humidity;BME280_pressure;Samples;Min_cycle;Max_cycle;Signal;HPM_P1;HPM_P2
2024/04/09 00:02:13;;;;;;;10.38;4.57;;;16.20;99.90;;;;;;5287079;27;20007;-76
2024/04/09 00:04:39;;;;;;;9.88;4.43;;;16.20;99.90;;;;;;5264534;27;20018;-76
2024/04/09 00:07:05;;;;;;;12.15;4.72;;;16.20;99.90;;;;;;5245316;27;20077;-76
2024/04/09 00:09:30;;;;;;;10.68;4.80;;;16.20;99.90;;;;;;5243511;27;20073;-76
2024/04/09 00:11:58;;;;;;;11.93;5.15;;;16.20;99.90;;;;;;5245703;27;20003;-76
2024/04/09 00:14:24;;;;;;;12.43;5.03;;;16.20;99.90;;;;;;5261249;27;20046;-77
2024/04/09 00:16:53;;;;;;;9.90;4.70;;;16.20;99.90;;;;;;5248302;27;20073;-76
2024/04/09 00:19:19;;;;;;;10.70;5.15;;;16.10;99.90;;;;;;5256926;27;20007;-77
2024/04/09 00:21:47;;;;;;;9.82;4.45;;;16.10;99.90;;;;;;5290806;27;20017;-77
2024/04/09 00:24:16;;;;;;;9.85;4.93;;;16.10;99.90;;;;;;5271556;27;20054;-76
2024/04/09 00:26:42;;;;;;;11.43;4.60;;;16.10;99.90;;;;;;5279246;27;20072;-77
2024/04/09 00:29:10;;;;;;;9.35;4.47;;;16.10;99.90;;;;;;5279146;27;20010;-76
2024/04/09 00:31:36;;;;;;;11.60;4.60;;;16.20;99.90;;;;;;5279205;27;20139;-77
2024/04/09 00:34:02;;;;;;;9.20;5.18;;;16.20;99.90;;;;;;5267991;27;20011;-77
2024/04/09 00:36:29;;;;;;;10.30;4.95;;;16.20;99.90;;;;;;5282859;27;20039;-77
2024/04/09 00:38:56;;;;;;;9.45;5.18;;;16.20;99.90;;;;;;5261436;27;20002;-77
2024/04/09 00:41:22;;;;;;;8.50;5.00;;;16.10;99.90;;;;;;5262174;27;20003;-77
2024/04/09 00:43:47;;;;;;;13.10;5.78;;;16.20;99.90;;;;;;5245540;27;20010;-77
2024/04/09 00:46:15;;;;;;;9.85;4.90;;;16.20;99.90;;;;;;5259909;27;20140;-77
2024/04/09 00:48:44;;;;;;;10.35;5.40;;;16.20;99.90;;;;;;5252520;27;20003;-77
2024/04/09 00:51:13;;;;;;;9.07;4.60;;;16.20;99.90;;;;;;5276302;27;20013;-77
2024/04/09 00:53:43;;;;;;;10.27;4.95;;;16.20;99.90;;;;;;5267652;27;20084;-77
2024/04/09 00:56:08;;;;;;;8.60;4.90;;;16.20;99.90;;;;;;5237718;27;20457;-77
2024/04/09 00:58:35;;;;;;;12.50;5.75;;;16.20;99.90;;;;;;5211949;27;19999;-77
2024/04/09 01:01:01;;;;;;;11.45;5.80;;;16.10;99.90;;;;;;5237442;27;20070;-77
2024/04/09 01:03:27;;;;;;;9.20;4.93;;;16.10;99.90;;;;;;5212073;27;20032;-77
2024/04/09 01:05:53;;;;;;;11.23;4.75;;;16.00;99.90;;;;;;5237937;27;20453;-76
2024/04/09 01:08:19;;;;;;;10.55;5.38;;;15.90;99.90;;;;;;5237588;27;20007;-76
2024/04/09 01:10:45;;;;;;;9.43;4.50;;;15.90;99.90;;;;;;5211986;27;20000;-76
2024/04/09 01:13:10;;;;;;;8.90;4.47;;;15.90;99.90;;;;;;5283144;27;20451;-76
2024/04/09 01:15:36;;;;;;;10.82;4.22;;;15.90;99.90;;;;;;5245770;27;20007;-76
2024/04/09 01:18:03;;;;;;;10.60;4.85;;;15.90;99.90;;;;;;5261798;27;20332;-76
2024/04/09 01:20:29;;;;;;;8.90;4.18;;;15.90;99.90;;;;;;5251384;27;20018;-76
2024/04/09 01:22:55;;;;;;;8.80;4.57;;;15.90;99.90;;;;;;5273738;27;20463;-76
2024/04/09 01:25:20;;;;;;;9.70;4.68;;;15.90;99.90;;;;;;5278326;27;20006;-76
2024/04/09 01:27:46;;;;;;;11.40;4.72;;;15.90;99.90;;;;;;5278476;27;20002;-76
2024/04/09 01:30:13;;;;;;;10.57;4.55;;;15.90;99.90;;;;;;5305134;27;20006;-76
2024/04/09 01:32:40;;;;;;;8.88;4.40;;;15.90;99.90;;;;;;5278166;27;20006;-76
2024/04/09 01:35:06;;;;;;;8.40;3.83;;;15.90;99.90;;;;;;5276031;27;20373;-76
2024/04/09 01:37:38;;;;;;;10.52;4.75;;;15.90;99.90;;;;;;5304709;27;20006;-76
2024/04/09 01:40:05;;;;;;;7.28;3.45;;;15.90;99.90;;;;;;5277894;27;20451;-76
2024/04/09 01:42:31;;;;;;;7.97;4.07;;;15.90;99.90;;;;;;5277896;27;20108;-77
2024/04/09 01:44:57;;;;;;;6.40;3.65;;;15.90;99.90;;;;;;5274412;27;20007;-83
2024/04/09 01:47:22;;;;;;;8.38;3.63;;;15.90;99.90;;;;;;5258344;27;20010;-80
2024/04/09 01:49:48;;;;;;;8.98;3.38;;;15.90;99.90;;;;;;5244177;27;20470;-81
2024/04/09 01:52:14;;;;;;;9.98;3.65;;;15.80;99.90;;;;;;5244310;27;20080;-81
2024/04/09 01:54:47;;;;;;;9.27;2.95;;;15.80;99.90;;;;;;5242288;27;20014;-81
2024/04/09 01:57:13;;;;;;;10.73;3.67;;;15.80;99.90;;;;;;5242683;27;20086;-81
2024/04/09 01:59:41;;;;;;;12.93;3.47;;;15.80;99.90;;;;;;5242027;27;20509;-81
2024/04/09 02:02:07;;;;;;;10.18;3.55;;;15.80;99.90;;;;;;5242924;27;20082;-81
2024/04/09 02:04:34;;;;;;;6.82;3.10;;;15.90;99.90;;;;;;5244081;27;20027;-83
2024/04/09 02:07:00;;;;;;;9.13;3.10;;;15.90;99.90;;;;;;5242503;27;20482;-80
2024/04/09 02:09:27;;;;;;;7.53;3.00;;;15.80;99.90;;;;;;5243681;27;20003;-80
2024/04/09 02:11:53;;;;;;;7.05;2.60;;;15.80;99.90;;;;;;5242337;27;19999;-80
2024/04/09 02:14:19;;;;;;;5.20;2.65;;;15.80;99.90;;;;;;5244040;27;20095;-80
2024/04/09 02:16:45;;;;;;;6.32;2.17;;;15.80;99.90;;;;;;5243476;27;19999;-81
2024/04/09 02:19:12;;;;;;;5.90;2.15;;;15.70;99.90;;;;;;5243828;27;19995;-80
2024/04/09 02:21:37;;;;;;;6.13;1.90;;;15.80;99.90;;;;;;5242277;27;20010;-81
2024/04/09 02:24:03;;;;;;;3.83;1.60;;;15.80;99.90;;;;;;5244036;27;20069;-81
2024/04/09 02:26:29;;;;;;;4.88;1.70;;;15.80;99.90;;;;;;5247392;27;19999;-81
2024/04/09 02:28:55;;;;;;;4.45;1.90;;;15.70;99.90;;;;;;5245598;27;19999;-81
2024/04/09 02:31:21;;;;;;;5.55;1.98;;;15.70;99.90;;;;;;5244787;27;19995;-82
2024/04/09 02:33:50;;;;;;;5.35;1.40;;;15.70;99.90;;;;;;5247598;27;19995;-82
2024/04/09 02:36:15;;;;;;;7.70;1.83;;;15.70;99.90;;;;;;5247496;27;19995;-81
2024/04/09 02:38:43;;;;;;;4.72;1.70;;;15.70;99.90;;;;;;5247212;27;20355;-82
2024/04/09 02:41:12;;;;;;;5.20;1.50;;;15.70;99.90;;;;;;5247415;27;19995;-81
2024/04/09 02:43:38;;;;;;;5.07;1.75;;;15.70;99.90;;;;;;5246813;27;20031;-81
2024/04/09 02:46:04;;;;;;;5.00;1.42;;;15.70;99.90;;;;;;5244965;27;19994;-81
2024/04/09 02:48:30;;;;;;;3.47;1.30;;;15.70;99.90;;;;;;5245826;27;20010;-81
2024/04/09 02:50:58;;;;;;;3.00;0.95;;;15.70;99.90;;;;;;5247072;27;20010;-81
2024/04/09 02:53:25;;;;;;;3.92;1.10;;;15.70;99.90;;;;;;5247116;27;20011;-81
2024/04/09 02:56:08;;;;;;;3.00;1.00;;;15.70;99.90;;;;;;5246596;27;19999;-82
2024/04/09 02:58:35;;;;;;;4.50;0.90;;;15.70;99.90;;;;;;5247802;27;19995;-82
2024/04/09 03:01:09;;;;;;;6.10;0.93;;;15.60;99.90;;;;;;5246839;27;20480;-82
2024/04/09 03:03:35;;;;;;;;;;;15.60;99.90;;;;;;5246269;27;20096;-81
2024/04/09 03:06:12;;;;;;;2.47;0.90;;;15.60;99.90;;;;;;5246776;27;20293;-82
2024/04/09 03:08:38;;;;;;;4.40;1.30;;;15.60;99.90;;;;;;5246328;27;20022;-81
2024/04/09 03:11:19;;;;;;;3.97;0.70;;;15.60;99.90;;;;;;5246576;27;20438;-82
2024/04/09 03:13:46;;;;;;;4.78;0.75;;;15.60;99.90;;;;;;5247362;27;20010;-82
2024/04/09 03:16:17;;;;;;;3.45;0.80;;;15.60;99.90;;;;;;5244539;27;19999;-80
2024/04/09 03:18:43;;;;;;;4.28;1.05;;;15.60;99.90;;;;;;5245999;27;20081;-84
2024/04/09 03:21:09;;;;;;;3.80;0.70;;;15.50;99.90;;;;;;5246662;27;20003;-81
2024/04/09 03:23:35;;;;;;;6.60;0.98;;;15.50;99.90;;;;;;5244811;27;20553;-82
2024/04/09 03:26:01;;;;;;;5.50;1.65;;;15.50;99.90;;;;;;5245230;27;20039;-82
2024/04/09 03:28:27;;;;;;;4.30;1.00;;;15.50;99.90;;;;;;5246697;27;20010;-83
2024/04/09 03:31:00;;;;;;;3.92;1.13;;;15.50;99.90;;;;;;5244511;27;20003;-83
2024/04/09 03:33:26;;;;;;;4.65;1.02;;;15.50;99.90;;;;;;5245264;27;20232;-82
2024/04/09 03:35:53;;;;;;;5.47;0.93;;;15.40;99.90;;;;;;5247051;27;19999;-79
2024/04/09 03:38:18;;;;;;;4.90;1.10;;;15.40;99.90;;;;;;5245518;27;20003;-81
2024/04/09 03:40:57;;;;;;;3.75;1.02;;;15.40;99.90;;;;;;5246591;27;20450;-82
2024/04/09 03:43:22;;;;;;;4.30;1.15;;;15.40;99.90;;;;;;5245364;27;19999;-81
2024/04/09 03:46:00;;;;;;;4.03;1.20;;;15.40;99.90;;;;;;5245943;27;20065;-81
2024/04/09 03:48:25;;;;;;;6.25;1.42;;;15.40;99.90;;;;;;5247172;27;20006;-81
2024/04/09 03:50:51;;;;;;;4.20;1.50;;;15.40;99.90;;;;;;5244141;27;20324;-82
2024/04/09 03:53:16;;;;;;;5.60;2.17;;;15.40;99.90;;;;;;5244076;27;20014;-81
2024/04/09 03:56:04;;;;;;;5.68;2.22;;;15.40;99.90;;;;;;5244539;27;19995;-82
2024/04/09 03:58:37;;;;;;;6.20;2.15;;;15.40;99.90;;;;;;5246058;27;20459;-81
2024/04/09 04:01:05;;;;;;;5.13;2.13;;;15.30;99.90;;;;;;5245965;27;20451;-81
2024/04/09 04:03:32;;;;;;;5.50;2.80;;;15.30;99.90;;;;;;5247021;27;20336;-82
2024/04/09 04:05:59;;;;;;;7.47;2.78;;;15.30;99.90;;;;;;5244121;27;20395;-81
2024/04/09 04:08:30;;;;;;;5.82;2.80;;;15.30;99.90;;;;;;5245668;27;20006;-80
2024/04/09 04:10:57;;;;;;;6.97;3.53;;;15.30;99.90;;;;;;5245516;27;20013;-79
2024/04/09 04:13:25;;;;;;;9.27;5.10;;;15.30;99.90;;;;;;5243884;27;19999;-82
2024/04/09 04:16:01;;;;;;;6.53;4.03;;;15.20;99.90;;;;;;5245400;27;20007;-79
2024/04/09 04:18:27;;;;;;;10.45;5.38;;;15.20;99.90;;;;;;5244219;27;19999;-81
2024/04/09 04:20:56;;;;;;;9.65;5.50;;;15.20;99.90;;;;;;5244372;27;20010;-79
2024/04/09 04:23:22;;;;;;;9.60;4.95;;;15.20;99.90;;;;;;5245823;27;20043;-80
2024/04/09 04:25:56;;;;;;;11.52;5.03;;;15.20;99.90;;;;;;5244171;27;20007;-81
2024/04/09 04:28:22;;;;;;;10.50;6.65;;;15.20;99.90;;;;;;5243121;27;20018;-80
2024/04/09 04:30:47;;;;;;;10.00;6.35;;;15.20;99.90;;;;;;5245502;27;20003;-81
2024/04/09 04:33:13;;;;;;;10.88;6.05;;;15.10;99.90;;;;;;5243722;27;20335;-82
2024/04/09 04:35:39;;;;;;;11.90;7.03;;;15.10;99.90;;;;;;5245647;27;20439;-80
2024/04/09 04:38:05;;;;;;;14.45;9.50;;;15.10;99.90;;;;;;5245168;27;20018;-78
2024/04/09 04:40:30;;;;;;;12.88;8.90;;;15.20;99.90;;;;;;5243487;27;20082;-77
2024/04/09 04:42:56;;;;;;;16.50;9.50;;;15.10;99.90;;;;;;5245013;27;20022;-81
2024/04/09 04:45:22;;;;;;;12.60;9.25;;;15.10;99.90;;;;;;5245276;27;20078;-82
2024/04/09 04:47:47;;;;;;;12.73;8.82;;;15.10;99.90;;;;;;5259001;27;20361;-81
2024/04/09 04:50:13;;;;;;;11.15;8.05;;;15.10;99.90;;;;;;5278563;27;20010;-79
2024/04/09 04:52:39;;;;;;;15.10;10.50;;;15.00;99.90;;;;;;5279384;27;19995;-80
2024/04/09 04:55:06;;;;;;;13.82;9.52;;;15.00;99.90;;;;;;5278634;27;20113;-82
2024/04/09 04:57:32;;;;;;;13.68;9.15;;;15.00;99.90;;;;;;5305570;27;20002;-79
2024/04/09 04:59:58;;;;;;;12.23;8.35;;;15.00;99.90;;;;;;5278566;27;20414;-82
2024/04/09 05:02:23;;;;;;;12.60;7.03;;;15.00;99.90;;;;;;5305168;27;20327;-83
2024/04/09 05:04:53;;;;;;;10.18;6.90;;;14.90;99.90;;;;;;5305060;27;20487;-80
2024/04/09 05:07:19;;;;;;;11.65;7.20;;;14.90;99.90;;;;;;5278454;27;20076;-81
2024/04/09 05:09:45;;;;;;;10.15;6.80;;;14.90;99.90;;;;;;5278261;27;20455;-81
2024/04/09 05:12:11;;;;;;;11.38;6.50;;;14.90;99.90;;;;;;5305378;27;20005;-81
2024/04/09 05:14:36;;;;;;;12.05;6.55;;;14.90;99.90;;;;;;5278628;27;20002;-81
2024/04/09 05:17:08;;;;;;;9.80;6.63;;;14.90;99.90;;;;;;5297527;27;20466;-82
2024/04/09 05:19:34;;;;;;;9.85;6.30;;;14.90;99.90;;;;;;5246931;27;20019;-81
2024/04/09 05:21:59;;;;;;;10.98;6.60;;;14.90;99.90;;;;;;5264372;27;20007;-82
2024/04/09 05:24:25;;;;;;;11.23;6.25;;;14.90;99.90;;;;;;5243512;27;20014;-82
2024/04/09 05:26:51;;;;;;;12.25;6.85;;;14.90;99.90;;;;;;5244819;27;20013;-83
2024/04/09 05:29:17;;;;;;;11.15;7.47;;;15.00;99.90;;;;;;5245198;27;20371;-80
2024/04/09 05:31:42;;;;;;;11.15;7.38;;;14.90;99.90;;;;;;5264648;27;20025;-83
2024/04/09 05:34:08;;;;;;;11.88;7.93;;;14.90;99.90;;;;;;5251396;27;20343;-84
2024/04/09 05:36:33;;;;;;;13.82;9.43;;;14.90;99.90;;;;;;5271083;27;20003;-84
2024/04/09 05:38:59;;;;;;;13.50;8.48;;;14.90;99.90;;;;;;5244387;27;20407;-82
2024/04/09 05:41:25;;;;;;;13.30;8.43;;;14.90;99.90;;;;;;5244203;27;20003;-83
2024/04/09 05:43:51;;;;;;;10.27;8.10;;;14.90;99.90;;;;;;5249241;27;20018;-83
2024/04/09 05:46:16;;;;;;;10.77;7.32;;;14.90;99.90;;;;;;5304704;27;20003;-82
2024/04/09 05:48:42;;;;;;;11.38;6.78;;;14.90;99.90;;;;;;5277648;27;20012;-83
2024/04/09 05:51:07;;;;;;;7.80;5.00;;;14.90;99.90;;;;;;5304551;27;20073;-85
2024/04/09 05:53:33;;;;;;;10.38;5.30;;;14.90;99.90;;;;;;5277696;27;20009;-81
2024/04/09 05:55:59;;;;;;;6.97;3.78;;;14.80;99.90;;;;;;5275847;27;20002;-83
2024/04/09 05:58:24;;;;;;;7.22;3.53;;;14.80;99.90;;;;;;5279312;27;20002;-83
2024/04/09 06:00:53;;;;;;;8.15;3.28;;;14.80;99.90;;;;;;5282335;27;20319;-82
2024/04/09 06:03:19;;;;;;;6.82;3.33;;;14.70;99.90;;;;;;5308472;27;19999;-82
2024/04/09 06:05:44;;;;;;;5.85;3.13;;;14.70;99.90;;;;;;5296524;27;20019;-84
2024/04/09 06:08:10;;;;;;;8.15;2.95;;;14.70;99.90;;;;;;5247131;27;20003;-83
2024/04/09 06:10:35;;;;;;;6.07;2.90;;;14.60;99.90;;;;;;5247218;27;20535;-79
2024/04/09 06:13:01;;;;;;;5.18;2.38;;;14.60;99.90;;;;;;5245484;27;20014;-83
2024/04/09 06:15:28;;;;;;;3.85;2.30;;;14.50;99.90;;;;;;5263779;27;20021;-81
2024/04/09 06:17:53;;;;;;;7.72;2.50;;;14.60;99.90;;;;;;5246412;27;20451;-83
2024/04/09 06:20:19;;;;;;;4.85;2.20;;;14.50;99.90;;;;;;5246730;27;20023;-80
2024/04/09 06:22:45;;;;;;;7.68;2.60;;;14.50;99.90;;;;;;5355785;21;20074;-85
2024/04/09 06:25:11;;;;;;;5.13;3.15;;;14.50;99.90;;;;;;5354427;26;20004;-85
2024/04/09 06:27:39;;;;;;;4.28;2.20;;;14.50;99.90;;;;;;5356754;26;19997;-85
2024/04/09 06:30:07;;;;;;;6.03;3.00;;;14.50;99.90;;;;;;5356989;26;20011;-85
2024/04/09 06:32:32;;;;;;;5.20;2.17;;;14.50;99.90;;;;;;5356376;26;20074;-86
2024/04/09 06:34:58;;;;;;;5.60;2.08;;;14.50;99.90;;;;;;5356739;26;20013;-85
2024/04/09 06:37:24;;;;;;;4.38;1.80;;;14.50;99.90;;;;;;5355092;26;20005;-85
2024/04/09 06:39:49;;;;;;;4.97;1.83;;;14.40;99.90;;;;;;5357179;26;20001;-85
2024/04/09 06:42:15;;;;;;;4.30;1.70;;;14.50;99.90;;;;;;5356623;26;20017;-86
2024/04/09 06:44:41;;;;;;;4.85;1.70;;;14.50;99.90;;;;;;5357266;26;19997;-85
2024/04/09 06:47:06;;;;;;;5.15;1.52;;;14.40;99.90;;;;;;5356574;26;20011;-86
2024/04/09 06:49:32;;;;;;;2.65;1.08;;;14.50;99.90;;;;;;5356662;26;20007;-85
2024/04/09 06:51:59;;;;;;;2.90;1.00;;;14.50;99.90;;;;;;5356095;26;20052;-85
2024/04/09 06:54:25;;;;;;;4.75;0.80;;;14.50;99.90;;;;;;5355410;26;20005;-86
2024/04/09 06:56:51;;;;;;;3.47;0.68;;;14.50;99.90;;;;;;5358575;26;20025;-85
2024/04/09 06:59:17;;;;;;;2.17;0.52;;;14.50;98.70;;;;;;5354648;26;20001;-85
2024/04/09 07:01:43;;;;;;;4.43;0.80;;;14.50;97.60;;;;;;5356580;26;20052;-86
2024/04/09 07:04:08;;;;;;;3.72;0.65;;;14.40;97.00;;;;;;5354710;26;20021;-86
2024/04/09 07:06:34;;;;;;;4.13;1.00;;;14.40;96.80;;;;;;5358394;26;20000;-85
2024/04/09 07:09:03;;;;;;;3.60;0.50;;;14.30;96.70;;;;;;5354901;26;20011;-86
2024/04/09 07:11:28;;;;;;;4.50;0.60;;;14.30;96.10;;;;;;5354398;26;20001;-85
2024/04/09 07:13:56;;;;;;;5.55;0.63;;;14.30;95.30;;;;;;5356054;26;20001;-85
2024/04/09 07:16:22;;;;;;;6.15;0.90;;;14.20;94.50;;;;;;5354430;26;20024;-86
2024/04/09 07:18:47;;;;;;;4.65;0.57;;;14.20;94.00;;;;;;5356732;26;20047;-86
2024/04/09 07:21:13;;;;;;;3.70;0.38;;;14.10;93.80;;;;;;5353974;26;20009;-86
2024/04/09 07:23:38;;;;;;;3.55;0.45;;;14.10;94.00;;;;;;5356244;26;20001;-86
2024/04/09 07:26:04;;;;;;;6.57;0.70;;;14.10;93.50;;;;;;5355567;26;20007;-85
2024/04/09 07:28:30;;;;;;;3.47;0.50;;;14.10;92.60;;;;;;5355623;26;19997;-86
2024/04/09 07:30:55;;;;;;;4.85;0.60;;;14.00;91.50;;;;;;5356177;26;20009;-86
2024/04/09 07:33:21;;;;;;;4.80;0.50;;;13.90;91.10;;;;;;5354516;26;20195;-85
2024/04/09 07:35:46;;;;;;;5.38;0.50;;;13.90;91.10;;;;;;5357465;26;20016;-86
2024/04/09 07:38:12;;;;;;;2.83;1.05;;;13.90;90.90;;;;;;5354367;26;20345;-86
2024/04/09 07:40:39;;;;;;;3.15;0.60;;;13.90;90.80;;;;;;5356350;26;20012;-86
2024/04/09 07:43:05;;;;;;;4.43;0.50;;;13.90;90.30;;;;;;5355042;26;20000;-86
2024/04/09 07:45:31;;;;;;;4.32;0.52;;;13.90;89.50;;;;;;5355506;26;20011;-86
2024/04/09 07:47:57;;;;;;;2.05;0.30;;;13.80;87.70;;;;;;5355848;26;20007;-86
2024/04/09 07:50:23;;;;;;;3.80;0.73;;;13.80;87.50;;;;;;5354166;26;20354;-86
2024/04/09 07:52:48;;;;;;;4.82;0.50;;;13.80;87.80;;;;;;5356589;26;20008;-86
2024/04/09 07:55:15;;;;;;;6.15;0.70;;;13.80;88.30;;;;;;5355033;26;20071;-86
2024/04/09 07:57:45;;;;;;;4.07;0.60;;;13.80;86.40;;;;;;5357583;26;19997;-86
2024/04/09 08:00:14;;;;;;;2.60;0.50;;;13.80;87.30;;;;;;5357371;26;20016;-86
2024/04/09 08:02:48;;;;;;;3.85;0.47;;;13.80;85.90;;;;;;5356851;26;20061;-86
2024/04/09 08:05:16;;;;;;;7.82;0.52;;;13.70;85.90;;;;;;5357570;26;20004;-86
2024/04/09 08:07:42;;;;;;;4.55;0.80;;;13.70;85.80;;;;;;5355770;26;20001;-85
2024/04/09 08:10:12;;;;;;;7.45;0.70;;;13.70;87.20;;;;;;5356778;26;20007;-86
2024/04/09 08:12:49;;;;;;;4.95;0.50;;;13.80;87.50;;;;;;5355965;26;20392;-86
2024/04/09 08:15:15;;;;;;;3.60;0.50;;;13.80;87.40;;;;;;5356251;26;19997;-86
2024/04/09 08:17:42;;;;;;;5.45;0.60;;;13.90;86.70;;;;;;5355282;26;19993;-86
2024/04/09 08:20:10;;;;;;;4.93;0.73;;;13.90;86.10;;;;;;5354770;26;20000;-86
2024/04/09 08:22:39;;;;;;;11.55;0.90;;;13.90;85.30;;;;;;5355940;26;20008;-86
2024/04/09 08:25:05;;;;;;;4.78;0.75;;;13.90;84.90;;;;;;5358424;26;19992;-86
2024/04/09 08:27:36;;;;;;;5.75;0.80;;;13.80;85.40;;;;;;5358640;26;20494;-86
2024/04/09 08:30:06;;;;;;;7.15;0.55;;;13.90;85.30;;;;;;5354064;26;20000;-86
2024/04/09 08:32:32;;;;;;;2.17;0.52;;;14.00;85.90;;;;;;5355433;26;20009;-86
2024/04/09 08:34:58;;;;;;;5.22;0.45;;;14.00;86.00;;;;;;5355047;26;20025;-84
2024/04/09 08:37:24;;;;;;;4.30;0.52;;;14.00;85.90;;;;;;5354938;26;20005;-84
2024/04/09 08:39:55;;;;;;;4.30;0.43;;;14.10;85.50;;;;;;5355608;26;19996;-85
2024/04/09 08:42:26;;;;;;;4.10;0.60;;;14.20;84.80;;;;;;5353714;26;20001;-84
2024/04/09 08:44:55;;;;;;;4.28;0.52;;;14.20;85.20;;;;;;5356977;26;19993;-84
2024/04/09 08:47:25;;;;;;;4.90;0.50;;;14.30;85.60;;;;;;5355791;26;20008;-83
2024/04/09 08:49:55;;;;;;;6.57;0.80;;;14.40;85.60;;;;;;5354245;26;20000;-86
2024/04/09 08:52:25;;;;;;;7.43;0.60;;;14.50;84.50;;;;;;5355173;26;20007;-85
2024/04/09 08:54:51;;;;;;;5.90;0.60;;;14.50;83.50;;;;;;5355059;26;20074;-85
2024/04/09 08:57:19;;;;;;;3.50;0.43;;;14.50;83.80;;;;;;5356342;26;20009;-85
2024/04/09 08:59:44;;;;;;;3.30;0.40;;;14.50;83.50;;;;;;5353175;26;20013;-85
2024/04/09 09:02:15;;;;;;;5.18;0.60;;;14.50;82.40;;;;;;5355081;26;20458;-86
2024/04/09 09:04:42;;;;;;;3.58;0.47;;;14.50;82.10;;;;;;5353642;26;19996;-85
2024/04/09 09:07:24;;;;;;;3.78;0.65;;;14.40;81.80;;;;;;5354031;26;19997;-85
2024/04/09 09:09:58;;;;;;;3.67;0.55;;;14.40;81.90;;;;;;5356255;26;19997;-85
2024/04/09 09:12:25;;;;;;;6.30;0.60;;;14.40;81.60;;;;;;5353222;26;20003;-85
2024/04/09 09:14:55;;;;;;;3.53;0.70;;;14.40;81.70;;;;;;5354783;26;20067;-85
2024/04/09 09:17:21;;;;;;;3.50;0.90;;;14.40;82.00;;;;;;5353168;26;20001;-86
2024/04/09 09:19:57;;;;;;;5.05;0.55;;;14.40;81.70;;;;;;5356146;26;20000;-86
2024/04/09 09:22:23;;;;;;;2.60;0.55;;;14.50;81.30;;;;;;5353640;26;19997;-85
2024/04/09 09:24:57;;;;;;;6.68;0.50;;;14.50;81.30;;;;;;5354466;26;20468;-85
2024/04/09 09:27:22;;;;;;;4.63;0.70;;;14.50;77.80;;;;;;5354758;26;20004;-85
2024/04/09 09:29:53;;;;;;;4.55;0.70;;;14.50;75.60;;;;;;5352727;26;19993;-85
2024/04/09 09:32:21;;;;;;;5.35;0.57;;;14.40;76.60;;;;;;5356168;26;20004;-85
2024/04/09 09:34:48;;;;;;;5.85;0.68;;;14.40;76.10;;;;;;5356716;26;19993;-85
2024/04/09 09:37:14;;;;;;;5.03;0.50;;;14.50;75.60;;;;;;5356301;26;20016;-84
2024/04/09 09:39:40;;;;;;;6.25;0.68;;;14.50;74.60;;;;;;5357805;26;19992;-86
2024/04/09 09:42:09;;;;;;;3.60;0.50;;;14.50;74.80;;;;;;5355721;26;20025;-85
2024/04/09 09:44:37;;;;;;;4.47;0.50;;;14.50;75.20;;;;;;5357610;26;19993;-85
2024/04/09 09:47:04;;;;;;;5.25;0.60;;;14.60;75.70;;;;;;5355344;26;19994;-85
2024/04/09 09:49:30;;;;;;;4.55;0.50;;;14.70;73.90;;;;;;5357266;26;20401;-85
2024/04/09 09:51:56;;;;;;;3.47;0.75;;;14.70;72.60;;;;;;5356339;26;20016;-85
2024/04/09 09:54:28;;;;;;;4.78;0.50;;;14.70;72.00;;;;;;5355609;26;19996;-86
2024/04/09 09:57:01;;;;;;;8.75;0.77;;;14.80;71.00;;;;;;5357539;26;19997;-85
2024/04/09 09:59:39;;;;;;;6.40;0.60;;;14.70;70.90;;;;;;5355715;26;20246;-85
2024/04/09 10:02:08;;;;;;;12.75;0.60;;;14.70;70.80;;;;;;5357271;26;19993;-85
2024/04/09 10:04:37;;;;;;;7.53;0.63;;;14.50;70.60;;;;;;5356220;26;20003;-85
2024/04/09 10:07:04;;;;;;;10.15;0.80;;;14.50;71.30;;;;;;5356248;26;20012;-85
2024/04/09 10:09:44;;;;;;;4.03;0.50;;;14.60;72.20;;;;;;5357046;26;19996;-85
2024/04/09 10:12:28;;;;;;;4.40;0.75;;;14.80;71.90;;;;;;5384838;26;20100;-85
2024/04/09 10:15:05;;;;;;;2.25;0.50;;;14.90;72.30;;;;;;5386504;26;19997;-85
2024/04/09 10:17:52;;;;;;;3.00;0.57;;;14.90;71.90;;;;;;5385254;26;20071;-85
2024/04/09 10:20:26;;;;;;;3.97;0.50;;;15.10;71.70;;;;;;5385172;26;20319;-85
2024/04/09 10:22:53;;;;;;;4.45;0.60;;;15.20;70.60;;;;;;5356876;26;20020;-85
2024/04/09 10:25:20;;;;;;;5.82;0.85;;;15.10;69.40;;;;;;5384520;26;20021;-85
2024/04/09 10:27:59;;;;;;;3.28;0.50;;;15.20;70.00;;;;;;5386512;26;19997;-85
2024/04/09 10:30:27;;;;;;;5.53;0.50;;;15.30;69.70;;;;;;5356042;26;20043;-86
2024/04/09 10:32:57;;;;;;;3.42;0.30;;;15.30;68.40;;;;;;5356137;26;20004;-85
2024/04/09 10:35:23;;;;;;;2.63;0.43;;;15.30;67.50;;;;;;5359481;26;19997;-86
2024/04/09 10:37:54;;;;;;;3.08;0.60;;;15.20;67.60;;;;;;5355393;26;20021;-86
2024/04/09 10:40:21;;;;;;;3.10;0.57;;;15.10;67.70;;;;;;5386240;26;20364;-86
2024/04/09 10:42:47;;;;;;;2.38;0.38;;;15.10;67.40;;;;;;5384862;26;20000;-87
2024/04/09 10:45:13;;;;;;;5.07;0.57;;;15.00;67.40;;;;;;5385034;26;20007;-86
2024/04/09 10:47:40;;;;;;;5.65;0.50;;;15.00;67.50;;;;;;5385943;26;20028;-86
2024/04/09 10:50:06;;;;;;;2.22;0.40;;;15.10;67.60;;;;;;5357910;26;20004;-87
2024/04/09 10:52:33;;;;;;;2.95;0.32;;;15.30;67.50;;;;;;5390234;26;19997;-86
2024/04/09 10:55:08;;;;;;;1.75;0.30;;;15.40;66.10;;;;;;5385190;26;20048;-85
2024/04/09 10:57:35;;;;;;;4.22;0.65;;;15.40;65.80;;;;;;5386156;26;20506;-87
2024/04/09 11:00:08;;;;;;;4.30;0.40;;;15.50;66.20;;;;;;5384260;26;20121;-86
2024/04/09 11:02:36;;;;;;;2.70;0.30;;;15.60;65.50;;;;;;5356562;26;19997;-86
2024/04/09 11:05:03;;;;;;;1.63;0.40;;;15.80;65.50;;;;;;5385698;26;20456;-86
2024/04/09 11:07:35;;;;;;;5.55;0.50;;;15.80;65.40;;;;;;5383476;26;19993;-86
2024/04/09 11:10:03;;;;;;;4.03;0.47;;;15.80;65.50;;;;;;5357027;26;20003;-86
2024/04/09 11:12:30;;;;;;;4.65;0.40;;;15.70;64.70;;;;;;5384347;26;20004;-86
2024/04/09 11:14:58;;;;;;;4.53;0.40;;;15.50;64.30;;;;;;5385487;26;19997;-85
2024/04/09 11:17:23;;;;;;;3.80;0.47;;;15.40;64.40;;;;;;5356044;26;20070;-85
2024/04/09 11:19:49;;;;;;;2.67;0.50;;;15.30;65.10;;;;;;5384984;26;20001;-86
2024/04/09 11:22:15;;;;;;;2.80;0.65;;;15.40;65.60;;;;;;5385059;26;20691;-86
2024/04/09 11:24:43;;;;;;;3.17;0.50;;;15.30;65.30;;;;;;5383867;26;19993;-86
2024/04/09 11:27:10;;;;;;;1.70;0.30;;;15.30;65.30;;;;;;5358110;26;20008;-86
2024/04/09 11:29:36;;;;;;;5.47;0.30;;;15.30;65.30;;;;;;5383484;26;19997;-85
2024/04/09 11:32:09;;;;;;;2.58;0.40;;;15.30;65.50;;;;;;5385733;26;20004;-84
2024/04/09 11:34:35;;;;;;;4.93;0.50;;;15.30;65.60;;;;;;5356679;26;20069;-85
2024/04/09 11:37:01;;;;;;;2.05;0.40;;;15.40;65.20;;;;;;5384873;26;20083;-86
2024/04/09 11:39:27;;;;;;;4.25;0.45;;;15.40;65.20;;;;;;5385420;26;19997;-85
2024/04/09 11:41:56;;;;;;;3.25;0.28;;;15.40;65.10;;;;;;5383512;26;20001;-86
2024/04/09 11:44:23;;;;;;;4.43;0.30;;;15.60;65.20;;;;;;5355671;26;20354;-86
2024/04/09 11:46:49;;;;;;;2.10;0.35;;;15.90;64.50;;;;;;5383602;26;20015;-86
2024/04/09 11:49:15;;;;;;;4.70;0.30;;;16.10;64.00;;;;;;5357569;26;20020;-86
2024/04/09 11:51:41;;;;;;;3.65;0.55;;;16.30;63.30;;;;;;5383955;26;20338;-86
2024/04/09 11:54:07;;;;;;;1.92;0.32;;;16.60;62.90;;;;;;5385542;26;20008;-86
2024/04/09 11:56:38;;;;;;;4.00;0.40;;;16.70;60.70;;;;;;5358396;26;19997;-85
2024/04/09 11:59:03;;;;;;;2.03;0.32;;;16.60;60.00;;;;;;5384688;26;20004;-85
2024/04/09 12:01:29;;;;;;;1.42;0.30;;;16.50;59.70;;;;;;5386079;26;19997;-85
2024/04/09 12:03:55;;;;;;;4.70;0.50;;;16.40;59.90;;;;;;5355280;26;20366;-86
2024/04/09 12:06:21;;;;;;;2.67;0.30;;;16.20;60.00;;;;;;5385784;26;20001;-86
2024/04/09 12:08:47;;;;;;;4.28;0.63;;;16.00;60.30;;;;;;5382851;26;20001;-86
2024/04/09 12:11:12;;;;;;;5.05;0.50;;;15.80;60.60;;;;;;5384208;26;20008;-86
2024/04/09 12:13:38;;;;;;;0.90;0.20;;;15.80;61.40;;;;;;5355002;26;20008;-85
2024/04/09 12:16:05;;;;;;;1.77;0.20;;;15.70;61.90;;;;;;5382757;26;20004;-85
2024/04/09 12:18:31;;;;;;;4.93;0.40;;;15.80;61.70;;;;;;5384802;26;20001;-86
2024/04/09 12:20:57;;;;;;;3.55;0.40;;;15.70;61.70;;;;;;5382815;26;20416;-86
2024/04/09 12:23:23;;;;;;;4.47;0.40;;;15.60;61.40;;;;;;5384618;26;20020;-86
2024/04/09 12:25:49;;;;;;;4.30;0.40;;;15.40;62.30;;;;;;5382721;26;20003;-85
2024/04/09 12:28:15;;;;;;;7.32;0.50;;;15.30;62.60;;;;;;5384068;26;19997;-86
2024/04/09 12:30:41;;;;;;;4.18;0.40;;;15.20;63.40;;;;;;5384004;26;20082;-86
2024/04/09 12:33:07;;;;;;;3.63;0.50;;;15.30;62.80;;;;;;5382841;26;20063;-86
2024/04/09 12:35:33;;;;;;;1.88;0.30;;;15.30;62.70;;;;;;5384106;26;20016;-85
2024/04/09 12:37:59;;;;;;;4.50;0.30;;;15.30;62.80;;;;;;5354384;26;20001;-86
2024/04/09 12:40:25;;;;;;;5.65;0.50;;;15.40;63.00;;;;;;5352063;26;19997;-86
2024/04/09 12:42:52;;;;;;;5.05;0.38;;;15.30;62.80;;;;;;5353278;26;20011;-86
2024/04/09 12:45:18;;;;;;;8.10;0.47;;;15.20;62.80;;;;;;5354614;26;20007;-86
2024/04/09 12:47:44;;;;;;;3.40;0.52;;;15.20;63.40;;;;;;5355879;26;20004;-85